sensor_id;sensor_type;location;lat;lon;timestamp;pressure;altitude;pressure_sealevel;temperature;humidity
8705;BME280;4389;41.932;25.904;2023-10-13T00:00:47;-16319.16;;;9.41;86.45
8705;BME280;4389;41.932;25.904;2023-10-13T00:03:13;-16320.47;;;9.46;86.14
8705;BME280;4389;41.932;25.904;2023-10-13T00:05:44;-16318.09;;;9.37;86.83
8705;BME280;4389;41.932;25.904;2023-10-13T00:08:11;-16319.94;;;9.44;86.74
8705;BME280;4389;41.932;25.904;2023-10-13T00:10:39;-16319.16;;;9.41;85.74
8705;BME280;4389;41.932;25.904;2023-10-13T00:13:07;-16321.03;;;9.48;85.47
8705;BME280;4389;41.932;25.904;2023-10-13T00:15:39;-16320.22;;;9.45;84.98
8705;BME280;4389;41.932;25.904;2023-10-13T00:18:11;-16319.81;;;9.44;84.70
8705;BME280;4389;41.932;25.904;2023-10-13T00:20:40;-16318.88;;;9.40;84.67
8705;BME280;4389;41.932;25.904;2023-10-13T00:23:13;-16318.34;;;9.38;84.26
8705;BME280;4389;41.932;25.904;2023-10-13T00:25:40;-16316.22;;;9.30;84.49
8705;BME280;4389;41.932;25.904;2023-10-13T00:28:17;-16315.56;;;9.28;85.22
8705;BME280;4389;41.932;25.904;2023-10-13T00:30:49;-16311.97;;;9.14;85.66
8705;BME280;4389;41.932;25.904;2023-10-13T00:33:18;-16310.38;;;9.08;86.09
8705;BME280;4389;41.932;25.904;2023-10-13T00:35:45;-16309.56;;;9.05;86.94
8705;BME280;4389;41.932;25.904;2023-10-13T00:38:14;-16307.72;;;8.98;87.00
8705;BME280;4389;41.932;25.904;2023-10-13T00:40:43;-16306.50;;;8.94;87.03
8705;BME280;4389;41.932;25.904;2023-10-13T00:43:18;-16307.56;;;8.98;87.44
8705;BME280;4389;41.932;25.904;2023-10-13T00:46:04;-16306.91;;;8.95;87.25
8705;BME280;4389;41.932;25.904;2023-10-13T00:48:40;-16308.25;;;9.00;87.16
8705;BME280;4389;41.932;25.904;2023-10-13T00:51:17;-16307.72;;;8.98;86.62
8705;BME280;4389;41.932;25.904;2023-10-13T00:53:48;-16306.66;;;8.94;86.44
8705;BME280;4389;41.932;25.904;2023-10-13T00:56:17;-16304.50;;;8.87;86.56
8705;BME280;4389;41.932;25.904;2023-10-13T00:58:49;-16301.84;;;8.77;88.24
8705;BME280;4389;41.932;25.904;2023-10-13T01:01:18;-16298.00;;;8.62;89.00
8705;BME280;4389;41.932;25.904;2023-10-13T01:03:45;-16295.72;;;8.54;89.72
8705;BME280;4389;41.932;25.904;2023-10-13T01:06:15;-16297.06;;;8.59;89.64
8705;BME280;4389;41.932;25.904;2023-10-13T01:08:43;-16297.59;;;8.61;89.46
8705;BME280;4389;41.932;25.904;2023-10-13T01:11:10;-16299.84;;;8.69;89.22
8705;BME280;4389;41.932;25.904;2023-10-13T01:13:36;-16300.53;;;8.72;88.54
8705;BME280;4389;41.932;25.904;2023-10-13T01:16:04;-16297.06;;;8.59;88.06
8705;BME280;4389;41.932;25.904;2023-10-13T01:18:32;-16294.78;;;8.50;88.08
8705;BME280;4389;41.932;25.904;2023-10-13T01:21:05;-16299.47;;;8.68;87.57
8705;BME280;4389;41.932;25.904;2023-10-13T01:23:34;-16301.31;;;8.75;87.34
8705;BME280;4389;41.932;25.904;2023-10-13T01:26:04;-16303.84;;;8.84;86.81
8705;BME280;4389;41.932;25.904;2023-10-13T01:28:31;-16304.66;;;8.87;86.54
8705;BME280;4389;41.932;25.904;2023-10-13T01:31:10;-16306.13;;;8.93;86.84
8705;BME280;4389;41.932;25.904;2023-10-13T01:33:38;-16306.50;;;8.94;86.56
8705;BME280;4389;41.932;25.904;2023-10-13T01:36:05;-16306.13;;;8.93;86.28
8705;BME280;4389;41.932;25.904;2023-10-13T01:38:37;-16306.38;;;8.93;86.03
8705;BME280;4389;41.932;25.904;2023-10-13T01:41:06;-16306.78;;;8.95;86.23
8705;BME280;4389;41.932;25.904;2023-10-13T01:43:35;-16301.19;;;8.74;86.71
8705;BME280;4389;41.932;25.904;2023-10-13T01:46:00;-16296.66;;;8.57;87.62
8705;BME280;4389;41.932;25.904;2023-10-13T01:48:29;-16294.94;;;8.51;87.99
8705;BME280;4389;41.932;25.904;2023-10-13T01:50:58;-16293.34;;;8.45;88.81
8705;BME280;4389;41.932;25.904;2023-10-13T01:53:29;-16292.81;;;8.43;89.01
8705;BME280;4389;41.932;25.904;2023-10-13T01:55:56;-16291.72;;;8.39;89.29
8705;BME280;4389;41.932;25.904;2023-10-13T01:58:24;-16289.88;;;8.32;90.08
8705;BME280;4389;41.932;25.904;2023-10-13T02:00:51;-16287.34;;;8.22;90.65
8705;BME280;4389;41.932;25.904;2023-10-13T02:03:18;-16289.47;;;8.30;90.84
8705;BME280;4389;41.932;25.904;2023-10-13T02:05:47;-16288.81;;;8.28;90.86
8705;BME280;4389;41.932;25.904;2023-10-13T02:08:15;-16285.06;;;8.14;91.69
8705;BME280;4389;41.932;25.904;2023-10-13T02:10:44;-16289.47;;;8.30;91.36
8705;BME280;4389;41.932;25.904;2023-10-13T02:13:14;-16292.00;;;8.40;91.13
8705;BME280;4389;41.932;25.904;2023-10-13T02:15:44;-16293.06;;;8.44;90.74
8705;BME280;4389;41.932;25.904;2023-10-13T02:18:14;-16295.47;;;8.53;90.57
8705;BME280;4389;41.932;25.904;2023-10-13T02:20:46;-16298.41;;;8.64;90.62
8705;BME280;4389;41.932;25.904;2023-10-13T02:23:20;-16301.31;;;8.75;89.34
8705;BME280;4389;41.932;25.904;2023-10-13T02:25:46;-16294.41;;;8.49;88.94
8705;BME280;4389;41.932;25.904;2023-10-13T02:28:14;-16292.53;;;8.42;89.50
8705;BME280;4389;41.932;25.904;2023-10-13T02:30:41;-16289.34;;;8.30;90.29
8705;BME280;4389;41.932;25.904;2023-10-13T02:33:14;-16286.94;;;8.21;90.64
8705;BME280;4389;41.932;25.904;2023-10-13T02:35:46;-16286.69;;;8.20;91.64
8705;BME280;4389;41.932;25.904;2023-10-13T02:38:20;-16287.47;;;8.23;91.44
8705;BME280;4389;41.932;25.904;2023-10-13T02:40:53;-16285.47;;;8.15;91.55
8705;BME280;4389;41.932;25.904;2023-10-13T02:43:22;-16285.06;;;8.14;91.95
8705;BME280;4389;41.932;25.904;2023-10-13T02:45:54;-16284.28;;;8.11;92.25
8705;BME280;4389;41.932;25.904;2023-10-13T02:48:26;-16284.81;;;8.13;92.30
8705;BME280;4389;41.932;25.904;2023-10-13T02:50:58;-16282.28;;;8.03;92.11
8705;BME280;4389;41.932;25.904;2023-10-13T02:53:31;-16286.69;;;8.20;91.59
8705;BME280;4389;41.932;25.904;2023-10-13T02:55:57;-16285.47;;;8.15;91.01
8705;BME280;4389;41.932;25.904;2023-10-13T02:58:33;-16284.28;;;8.11;91.57
8705;BME280;4389;41.932;25.904;2023-10-13T03:01:08;-16281.88;;;8.02;91.36
8705;BME280;4389;41.932;25.904;2023-10-13T03:03:47;-16279.47;;;7.93;92.11
8705;BME280;4389;41.932;25.904;2023-10-13T03:06:16;-16280.81;;;7.98;92.68
8705;BME280;4389;41.932;25.904;2023-10-13T03:08:42;-16278.69;;;7.90;92.39
8705;BME280;4389;41.932;25.904;2023-10-13T03:11:10;-16278.41;;;7.89;93.24
8705;BME280;4389;41.932;25.904;2023-10-13T03:13:38;-16280.53;;;7.97;92.77
8705;BME280;4389;41.932;25.904;2023-10-13T03:16:14;-16281.75;;;8.01;92.56
8705;BME280;4389;41.932;25.904;2023-10-13T03:18:43;-16281.47;;;8.00;92.67
8705;BME280;4389;41.932;25.904;2023-10-13T03:21:20;-16284.53;;;8.12;92.41
8705;BME280;4389;41.932;25.904;2023-10-13T03:23:57;-16286.94;;;8.21;91.60
8705;BME280;4389;41.932;25.904;2023-10-13T03:26:30;-16286.94;;;8.21;91.53
8705;BME280;4389;41.932;25.904;2023-10-13T03:29:02;-16282.16;;;8.03;91.03
8705;BME280;4389;41.932;25.904;2023-10-13T03:31:33;-16278.16;;;7.88;91.54
8705;BME280;4389;41.932;25.904;2023-10-13T03:34:04;-16278.41;;;7.89;91.71
8705;BME280;4389;41.932;25.904;2023-10-13T03:36:35;-16276.56;;;7.82;92.04
8705;BME280;4389;41.932;25.904;2023-10-13T03:39:19;-16273.09;;;7.69;93.02
8705;BME280;4389;41.932;25.904;2023-10-13T03:41:52;-16271.75;;;7.64;92.64
8705;BME280;4389;41.932;25.904;2023-10-13T03:44:20;-16271.22;;;7.62;93.41
8705;BME280;4389;41.932;25.904;2023-10-13T03:46:48;-16276.03;;;7.80;92.29
8705;BME280;4389;41.932;25.904;2023-10-13T03:49:15;-16275.47;;;7.78;92.32
8705;BME280;4389;41.932;25.904;2023-10-13T03:51:47;-16275.22;;;7.77;92.06
8705;BME280;4389;41.932;25.904;2023-10-13T03:54:15;-16279.63;;;7.93;92.00
8705;BME280;4389;41.932;25.904;2023-10-13T03:56:43;-16279.47;;;7.93;91.13
8705;BME280;4389;41.932;25.904;2023-10-13T03:59:11;-16279.09;;;7.91;91.31
8705;BME280;4389;41.932;25.904;2023-10-13T04:01:48;-16280.00;;;7.95;91.07
8705;BME280;4389;41.932;25.904;2023-10-13T04:04:24;-16272.41;;;7.66;91.62
8705;BME280;4389;41.932;25.904;2023-10-13T04:07:00;-16268.56;;;7.52;92.31
8705;BME280;4389;41.932;25.904;2023-10-13T04:09:52;-16269.75;;;7.56;93.36
8705;BME280;4389;41.932;25.904;2023-10-13T04:12:35;-16269.09;;;7.54;92.80
8705;BME280;4389;41.932;25.904;2023-10-13T04:15:19;-16267.91;;;7.49;93.39
8705;BME280;4389;41.932;25.904;2023-10-13T04:17:50;-16266.97;;;7.46;92.58
8705;BME280;4389;41.932;25.904;2023-10-13T04:20:17;-16268.03;;;7.50;92.75
8705;BME280;4389;41.932;25.904;2023-10-13T04:22:54;-16267.09;;;7.46;92.58
8705;BME280;4389;41.932;25.904;2023-10-13T04:25:36;-16266.97;;;7.46;93.12
8705;BME280;4389;41.932;25.904;2023-10-13T04:28:18;-16269.91;;;7.57;92.51
8705;BME280;4389;41.932;25.904;2023-10-13T04:30:59;-16272.56;;;7.67;92.70
8705;BME280;4389;41.932;25.904;2023-10-13T04:33:38;-16276.03;;;7.80;92.11
8705;BME280;4389;41.932;25.904;2023-10-13T04:36:16;-16273.75;;;7.71;91.40
8705;BME280;4389;41.932;25.904;2023-10-13T04:38:48;-16271.50;;;7.63;91.50
8705;BME280;4389;41.932;25.904;2023-10-13T04:41:26;-16273.88;;;7.72;91.95
8705;BME280;4389;41.932;25.904;2023-10-13T04:43:57;-16270.97;;;7.61;92.21
8705;BME280;4389;41.932;25.904;2023-10-13T04:46:30;-16272.56;;;7.67;92.83
8705;BME280;4389;41.932;25.904;2023-10-13T04:49:21;-16279.22;;;7.92;92.72
8705;BME280;4389;41.932;25.904;2023-10-13T04:51:55;-16281.22;;;7.99;91.81
8705;BME280;4389;41.932;25.904;2023-10-13T04:54:25;-16283.47;;;8.08;91.89
8705;BME280;4389;41.932;25.904;2023-10-13T04:57:10;-16287.47;;;8.23;90.98
8705;BME280;4389;41.932;25.904;2023-10-13T04:59:51;-16289.75;;;8.31;90.12
8705;BME280;4389;41.932;25.904;2023-10-13T05:02:36;-16291.72;;;8.39;89.56
8705;BME280;4389;41.932;25.904;2023-10-13T05:05:24;-16293.06;;;8.44;89.97
8705;BME280;4389;41.932;25.904;2023-10-13T05:08:11;-16294.41;;;8.49;89.70
8705;BME280;4389;41.932;25.904;2023-10-13T05:10:56;-16298.41;;;8.64;89.15
8705;BME280;4389;41.932;25.904;2023-10-13T05:13:40;-16294.00;;;8.47;89.68
8705;BME280;4389;41.932;25.904;2023-10-13T05:16:24;-16299.19;;;8.67;89.74
8705;BME280;4389;41.932;25.904;2023-10-13T05:19:08;-16302.66;;;8.80;89.20
8705;BME280;4389;41.932;25.904;2023-10-13T05:21:54;-16304.13;;;8.85;88.32
8705;BME280;4389;41.932;25.904;2023-10-13T05:24:38;-16306.38;;;8.93;88.51
8705;BME280;4389;41.932;25.904;2023-10-13T05:27:22;-16310.09;;;9.07;88.14
8705;BME280;4389;41.932;25.904;2023-10-13T05:30:07;-16314.63;;;9.24;87.56
8705;BME280;4389;41.932;25.904;2023-10-13T05:32:52;-16316.50;;;9.31;87.01
8705;BME280;4389;41.932;25.904;2023-10-13T05:35:36;-16320.22;;;9.45;86.16
8705;BME280;4389;41.932;25.904;2023-10-13T05:38:22;-16323.16;;;9.56;86.28
8705;BME280;4389;41.932;25.904;2023-10-13T05:41:06;-16327.66;;;9.73;85.27
8705;BME280;4389;41.932;25.904;2023-10-13T05:43:50;-16333.25;;;9.94;84.56
8705;BME280;4389;41.932;25.904;2023-10-13T05:46:35;-16335.38;;;10.02;84.54
8705;BME280;4389;41.932;25.904;2023-10-13T05:49:14;-16334.31;;;9.98;84.85
8705;BME280;4389;41.932;25.904;2023-10-13T05:52:06;-16337.00;;;10.08;85.70
8705;BME280;4389;41.932;25.904;2023-10-13T05:55:07;-16338.84;;;10.15;86.60
8705;BME280;4389;41.932;25.904;2023-10-13T05:57:51;-16344.44;;;10.36;85.75
8705;BME280;4389;41.932;25.904;2023-10-13T06:00:41;-16349.34;;;10.55;84.81
8705;BME280;4389;41.932;25.904;2023-10-13T06:03:26;-16353.59;;;10.71;84.89
8705;BME280;4389;41.932;25.904;2023-10-13T06:06:10;-16359.34;;;10.92;84.06
8705;BME280;4389;41.932;25.904;2023-10-13T06:08:54;-16360.25;;;10.96;82.77
8705;BME280;4389;41.932;25.904;2023-10-13T06:11:40;-16362.38;;;11.04;82.54
8705;BME280;4389;41.932;25.904;2023-10-13T06:14:24;-16368.38;;;11.26;82.22
8705;BME280;4389;41.932;25.904;2023-10-13T06:17:20;-16374.50;;;11.49;81.55
8705;BME280;4389;41.932;25.904;2023-10-13T06:20:05;-16381.13;;;11.74;80.11
8705;BME280;4389;41.932;25.904;2023-10-13T06:22:58;-16386.84;;;11.96;79.18
8705;BME280;4389;41.932;25.904;2023-10-13T06:25:42;-16392.16;;;12.16;78.82
8705;BME280;4389;41.932;25.904;2023-10-13T06:28:28;-16396.16;;;12.31;77.25
8705;BME280;4389;41.932;25.904;2023-10-13T06:31:08;-16398.94;;;12.41;77.51
8705;BME280;4389;41.932;25.904;2023-10-13T06:33:39;-16400.28;;;12.46;77.51
8705;BME280;4389;41.932;25.904;2023-10-13T06:36:11;-16404.66;;;12.63;78.05
8705;BME280;4389;41.932;25.904;2023-10-13T06:38:37;-16406.38;;;12.69;77.09
8705;BME280;4389;41.932;25.904;2023-10-13T06:41:05;-16408.38;;;12.77;77.13
8705;BME280;4389;41.932;25.904;2023-10-13T06:43:33;-16412.09;;;12.91;76.17
8705;BME280;4389;41.932;25.904;2023-10-13T06:46:05;-16417.16;;;13.10;76.33
8705;BME280;4389;41.932;25.904;2023-10-13T06:48:33;-16419.94;;;13.20;75.58
8705;BME280;4389;41.932;25.904;2023-10-13T06:51:00;-16423.25;;;13.33;75.93
8705;BME280;4389;41.932;25.904;2023-10-13T06:53:37;-16428.03;;;13.51;75.42
8705;BME280;4389;41.932;25.904;2023-10-13T06:56:11;-16434.28;;;13.74;74.45
8705;BME280;4389;41.932;25.904;2023-10-13T06:58:44;-16438.28;;;13.89;73.85
8705;BME280;4389;41.932;25.904;2023-10-13T07:01:12;-16443.31;;;14.08;73.56
8705;BME280;4389;41.932;25.904;2023-10-13T07:03:42;-16447.84;;;14.25;73.49
8705;BME280;4389;41.932;25.904;2023-10-13T07:06:09;-16451.28;;;14.38;72.97
8705;BME280;4389;41.932;25.904;2023-10-13T07:08:37;-16457.00;;;14.59;73.02
8705;BME280;4389;41.932;25.904;2023-10-13T07:11:04;-16460.31;;;14.72;71.74
8705;BME280;4389;41.932;25.904;2023-10-13T07:13:34;-16462.56;;;14.80;71.81
8705;BME280;4389;41.932;25.904;2023-10-13T07:16:05;-16463.63;;;14.84;71.10
8705;BME280;4389;41.932;25.904;2023-10-13T07:18:33;-16467.59;;;14.99;71.27
8705;BME280;4389;41.932;25.904;2023-10-13T07:21:02;-16471.97;;;15.16;70.89
8705;BME280;4389;41.932;25.904;2023-10-13T07:23:36;-16474.91;;;15.27;70.10
8705;BME280;4389;41.932;25.904;2023-10-13T07:26:04;-16479.03;;;15.42;70.04
8705;BME280;4389;41.932;25.904;2023-10-13T07:28:34;-16482.06;;;15.54;69.00
8705;BME280;4389;41.932;25.904;2023-10-13T07:31:02;-16484.72;;;15.64;69.39
8705;BME280;4389;41.932;25.904;2023-10-13T07:33:42;-16490.28;;;15.85;68.54
8705;BME280;4389;41.932;25.904;2023-10-13T07:36:10;-16494.28;;;16.00;67.67
8705;BME280;4389;41.932;25.904;2023-10-13T07:38:50;-16496.94;;;16.10;67.43
8705;BME280;4389;41.932;25.904;2023-10-13T07:41:35;-16497.97;;;16.14;67.11
8705;BME280;4389;41.932;25.904;2023-10-13T07:44:02;-16501.84;;;16.28;67.00
8705;BME280;4389;41.932;25.904;2023-10-13T07:46:30;-16507.81;;;16.51;66.33
8705;BME280;4389;41.932;25.904;2023-10-13T07:49:00;-16512.03;;;16.67;65.48
8705;BME280;4389;41.932;25.904;2023-10-13T07:51:35;-16514.97;;;16.78;64.03
8705;BME280;4389;41.932;25.904;2023-10-13T07:54:09;-16517.88;;;16.89;62.49
8705;BME280;4389;41.932;25.904;2023-10-13T07:56:40;-16520.78;;;17.00;62.88
8705;BME280;4389;41.932;25.904;2023-10-13T07:59:07;-16522.91;;;17.08;61.89
8705;BME280;4389;41.932;25.904;2023-10-13T08:01:34;-16526.34;;;17.21;62.40
8705;BME280;4389;41.932;25.904;2023-10-13T08:04:03;-16527.81;;;17.26;62.21
8705;BME280;4389;41.932;25.904;2023-10-13T08:06:35;-16530.88;;;17.38;61.52
8705;BME280;4389;41.932;25.904;2023-10-13T08:09:02;-16536.69;;;17.60;61.04
8705;BME280;4389;41.932;25.904;2023-10-13T08:11:34;-16540.41;;;17.74;59.90
8705;BME280;4389;41.932;25.904;2023-10-13T08:14:04;-16541.47;;;17.78;59.52
8705;BME280;4389;41.932;25.904;2023-10-13T08:16:38;-16543.06;;;17.84;59.62
8705;BME280;4389;41.932;25.904;2023-10-13T08:19:13;-16547.56;;;18.01;59.68
8705;BME280;4389;41.932;25.904;2023-10-13T08:21:42;-16550.06;;;18.10;58.22
8705;BME280;4389;41.932;25.904;2023-10-13T08:24:15;-16550.22;;;18.11;57.97
8705;BME280;4389;41.932;25.904;2023-10-13T08:26:50;-16553.00;;;18.21;57.85
8705;BME280;4389;41.932;25.904;2023-10-13T08:29:23;-16558.44;;;18.42;57.43
8705;BME280;4389;41.932;25.904;2023-10-13T08:32:08;-16562.41;;;18.57;56.18
8705;BME280;4389;41.932;25.904;2023-10-13T08:34:50;-16565.31;;;18.68;55.61
8705;BME280;4389;41.932;25.904;2023-10-13T08:37:34;-16570.06;;;18.85;54.64
8705;BME280;4389;41.932;25.904;2023-10-13T08:40:13;-16572.84;;;18.96;53.40
8705;BME280;4389;41.932;25.904;2023-10-13T08:43:05;-16575.38;;;19.05;53.40
8705;BME280;4389;41.932;25.904;2023-10-13T08:45:39;-16579.34;;;19.20;53.24
8705;BME280;4389;41.932;25.904;2023-10-13T08:48:24;-16583.84;;;19.37;52.22
8705;BME280;4389;41.932;25.904;2023-10-13T08:51:00;-16586.50;;;19.47;51.87
8705;BME280;4389;41.932;25.904;2023-10-13T08:53:46;-16589.28;;;19.58;51.92
8705;BME280;4389;41.932;25.904;2023-10-13T08:56:17;-16593.91;;;19.75;50.91
8705;BME280;4389;41.932;25.904;2023-10-13T08:58:45;-16594.69;;;19.78;50.66
8705;BME280;4389;41.932;25.904;2023-10-13T09:01:31;-16598.66;;;19.93;49.51
8705;BME280;4389;41.932;25.904;2023-10-13T09:04:03;-16600.53;;;20.00;48.73
8705;BME280;4389;41.932;25.904;2023-10-13T09:06:50;-16601.59;;;20.04;48.73
8705;BME280;4389;41.932;25.904;2023-10-13T09:09:45;-16601.31;;;20.03;47.15
8705;BME280;4389;41.932;25.904;2023-10-13T09:12:26;-16604.22;;;20.14;47.55
8705;BME280;4389;41.932;25.904;2023-10-13T09:15:05;-16608.72;;;20.31;47.31
8705;BME280;4389;41.932;25.904;2023-10-13T09:17:40;-16611.09;;;20.40;46.91
8705;BME280;4389;41.932;25.904;2023-10-13T09:20:14;-16615.34;;;20.56;46.53
8705;BME280;4389;41.932;25.904;2023-10-13T09:22:58;-16617.72;;;20.65;46.04
8705;BME280;4389;41.932;25.904;2023-10-13T09:25:35;-16620.50;;;20.76;45.93
8705;BME280;4389;41.932;25.904;2023-10-13T09:28:03;-16627.25;;;21.01;45.54
8705;BME280;4389;41.932;25.904;2023-10-13T09:30:42;-16633.06;;;21.23;44.83
8705;BME280;4389;41.932;25.904;2023-10-13T09:33:08;-16634.66;;;21.29;44.58
8705;BME280;4389;41.932;25.904;2023-10-13T09:35:36;-16637.28;;;21.39;44.25
8705;BME280;4389;41.932;25.904;2023-10-13T09:38:04;-16639.94;;;21.49;44.30
8705;BME280;4389;41.932;25.904;2023-10-13T09:40:31;-16640.72;;;21.52;43.28
8705;BME280;4389;41.932;25.904;2023-10-13T09:43:00;-16641.78;;;21.56;43.86
8705;BME280;4389;41.932;25.904;2023-10-13T09:45:34;-16644.16;;;21.65;43.73
8705;BME280;4389;41.932;25.904;2023-10-13T09:48:02;-16643.63;;;21.63;43.56
8705;BME280;4389;41.932;25.904;2023-10-13T09:50:36;-16648.00;;;21.80;43.49
8705;BME280;4389;41.932;25.904;2023-10-13T09:53:05;-16648.41;;;21.81;43.49
8705;BME280;4389;41.932;25.904;2023-10-13T09:55:36;-16651.03;;;21.91;43.42
8705;BME280;4389;41.932;25.904;2023-10-13T09:58:07;-16653.44;;;22.00;42.59
8705;BME280;4389;41.932;25.904;2023-10-13T10:00:43;-16653.28;;;22.00;42.72
8705;BME280;4389;41.932;25.904;2023-10-13T10:03:12;-16655.94;;;22.10;42.81
8705;BME280;4389;41.932;25.904;2023-10-13T10:05:56;-16658.44;;;22.19;42.31
8705;BME280;4389;41.932;25.904;2023-10-13T10:08:30;-16658.97;;;22.21;41.95
8705;BME280;4389;41.932;25.904;2023-10-13T10:11:07;-16662.66;;;22.35;42.27
8705;BME280;4389;41.932;25.904;2023-10-13T10:13:37;-16665.72;;;22.47;41.89
8705;BME280;4389;41.932;25.904;2023-10-13T10:16:10;-16670.59;;;22.65;41.70
8705;BME280;4389;41.932;25.904;2023-10-13T10:18:41;-16674.56;;;22.80;41.21
8705;BME280;4389;41.932;25.904;2023-10-13T10:21:07;-16679.59;;;22.99;41.13
8705;BME280;4389;41.932;25.904;2023-10-13T10:23:37;-16682.75;;;23.11;40.67
8705;BME280;4389;41.932;25.904;2023-10-13T10:26:12;-16682.88;;;23.12;40.50
8705;BME280;4389;41.932;25.904;2023-10-13T10:28:42;-16683.28;;;23.13;40.23
8705;BME280;4389;41.932;25.904;2023-10-13T10:31:09;-16684.88;;;23.19;40.65
8705;BME280;4389;41.932;25.904;2023-10-13T10:33:38;-16690.16;;;23.39;40.62
8705;BME280;4389;41.932;25.904;2023-10-13T10:36:06;-16694.50;;;23.56;40.05
8705;BME280;4389;41.932;25.904;2023-10-13T10:38:34;-16697.94;;;23.69;39.80
8705;BME280;4389;41.932;25.904;2023-10-13T10:41:05;-16698.59;;;23.71;39.71
8705;BME280;4389;41.932;25.904;2023-10-13T10:43:36;-16699.91;;;23.76;39.43
8705;BME280;4389;41.932;25.904;2023-10-13T10:46:13;-16701.63;;;23.83;39.91
8705;BME280;4389;41.932;25.904;2023-10-13T10:48:41;-16704.16;;;23.92;39.18
8705;BME280;4389;41.932;25.904;2023-10-13T10:51:09;-16705.59;;;23.98;38.81
8705;BME280;4389;41.932;25.904;2023-10-13T10:53:47;-16705.06;;;23.96;38.93
8705;BME280;4389;41.932;25.904;2023-10-13T10:56:18;-16705.84;;;23.99;38.99
8705;BME280;4389;41.932;25.904;2023-10-13T10:58:52;-16708.50;;;24.09;38.83
8705;BME280;4389;41.932;25.904;2023-10-13T11:01:20;-16710.22;;;24.15;38.45
8705;BME280;4389;41.932;25.904;2023-10-13T11:03:54;-16710.88;;;24.18;38.32
8705;BME280;4389;41.932;25.904;2023-10-13T11:06:24;-16711.66;;;24.21;38.35
8705;BME280;4389;41.932;25.904;2023-10-13T11:09:02;-16710.88;;;24.18;38.30
8705;BME280;4389;41.932;25.904;2023-10-13T11:11:31;-16709.94;;;24.14;38.71
8705;BME280;4389;41.932;25.904;2023-10-13T11:14:01;-16713.91;;;24.29;38.47
8705;BME280;4389;41.932;25.904;2023-10-13T11:16:47;-16717.06;;;24.41;38.00
8705;BME280;4389;41.932;25.904;2023-10-13T11:19:17;-16716.53;;;24.39;38.10
8705;BME280;4389;41.932;25.904;2023-10-13T11:21:46;-16717.88;;;24.44;37.97
8705;BME280;4389;41.932;25.904;2023-10-13T11:24:14;-16720.63;;;24.54;37.69
8705;BME280;4389;41.932;25.904;2023-10-13T11:26:44;-16721.56;;;24.58;37.60
8705;BME280;4389;41.932;25.904;2023-10-13T11:29:16;-16722.47;;;24.61;37.62
8705;BME280;4389;41.932;25.904;2023-10-13T11:31:46;-16723.66;;;24.66;37.34
8705;BME280;4389;41.932;25.904;2023-10-13T11:34:19;-16728.56;;;24.84;37.61
8705;BME280;4389;41.932;25.904;2023-10-13T11:36:46;-16730.53;;;24.92;36.81
8705;BME280;4389;41.932;25.904;2023-10-13T11:39:13;-16729.47;;;24.88;36.71
8705;BME280;4389;41.932;25.904;2023-10-13T11:41:52;-16735.81;;;25.12;36.34
8705;BME280;4389;41.932;25.904;2023-10-13T11:44:21;-16739.50;;;25.26;36.38
8705;BME280;4389;41.932;25.904;2023-10-13T11:46:57;-16743.97;;;25.43;37.13
8705;BME280;4389;41.932;25.904;2023-10-13T11:49:33;-16749.25;;;25.63;36.20
8705;BME280;4389;41.932;25.904;2023-10-13T11:52:03;-16753.72;;;25.80;35.80
8705;BME280;4389;41.932;25.904;2023-10-13T11:54:43;-16757.03;;;25.92;35.35
8705;BME280;4389;41.932;25.904;2023-10-13T11:57:13;-16757.56;;;25.94;35.56
8705;BME280;4389;41.932;25.904;2023-10-13T11:59:43;-16756.09;;;25.89;35.39
8705;BME280;4389;41.932;25.904;2023-10-13T12:02:21;-16757.16;;;25.93;34.59
8705;BME280;4389;41.932;25.904;2023-10-13T12:05:06;-16762.97;;;26.15;34.71
8705;BME280;4389;41.932;25.904;2023-10-13T12:07:42;-16768.22;;;26.35;33.72
8705;BME280;4389;41.932;25.904;2023-10-13T12:10:11;-16770.34;;;26.43;34.58
8705;BME280;4389;41.932;25.904;2023-10-13T12:12:43;-16772.19;;;26.50;33.67
8705;BME280;4389;41.932;25.904;2023-10-13T12:15:12;-16772.72;;;26.52;33.42
8705;BME280;4389;41.932;25.904;2023-10-13T12:17:51;-16773.91;;;26.56;33.05
8705;BME280;4389;41.932;25.904;2023-10-13T12:20:18;-16776.28;;;26.65;32.89
8705;BME280;4389;41.932;25.904;2023-10-13T12:22:58;-16777.72;;;26.71;32.50
8705;BME280;4389;41.932;25.904;2023-10-13T12:25:37;-16781.81;;;26.86;32.87
8705;BME280;4389;41.932;25.904;2023-10-13T12:28:22;-16779.69;;;26.78;32.77
8705;BME280;4389;41.932;25.904;2023-10-13T12:30:53;-16780.63;;;26.82;32.39
8705;BME280;4389;41.932;25.904;2023-10-13T12:33:23;-16783.78;;;26.94;32.41
8705;BME280;4389;41.932;25.904;2023-10-13T12:35:58;-16790.09;;;27.18;32.14
8705;BME280;4389;41.932;25.904;2023-10-13T12:38:35;-16795.38;;;27.38;31.83
8705;BME280;4389;41.932;25.904;2023-10-13T12:41:19;-16800.50;;;27.57;30.94
8705;BME280;4389;41.932;25.904;2023-10-13T12:44:06;-16800.22;;;27.56;30.53
8705;BME280;4389;41.932;25.904;2023-10-13T12:46:51;-16801.69;;;27.62;31.43
8705;BME280;4389;41.932;25.904;2023-10-13T12:49:36;-16800.22;;;27.56;31.10
8705;BME280;4389;41.932;25.904;2023-10-13T12:52:17;-16798.25;;;27.49;30.69
8705;BME280;4389;41.932;25.904;2023-10-13T12:54:45;-16801.69;;;27.62;30.74
8705;BME280;4389;41.932;25.904;2023-10-13T12:57:20;-16799.31;;;27.53;30.82
8705;BME280;4389;41.932;25.904;2023-10-13T12:59:49;-16799.31;;;27.53;31.23
8705;BME280;4389;41.932;25.904;2023-10-13T13:02:19;-16801.41;;;27.61;30.83
8705;BME280;4389;41.932;25.904;2023-10-13T13:04:46;-16797.59;;;27.46;31.11
8705;BME280;4389;41.932;25.904;2023-10-13T13:07:16;-16791.81;;;27.24;31.61
8705;BME280;4389;41.932;25.904;2023-10-13T13:09:43;-16787.59;;;27.08;31.05
8705;BME280;4389;41.932;25.904;2023-10-13T13:12:10;-16791.41;;;27.23;31.26
8705;BME280;4389;41.932;25.904;2023-10-13T13:14:38;-16794.56;;;27.35;31.79
8705;BME280;4389;41.932;25.904;2023-10-13T13:17:08;-16794.31;;;27.34;31.05
8705;BME280;4389;41.932;25.904;2023-10-13T13:19:36;-16792.72;;;27.28;31.07
8705;BME280;4389;41.932;25.904;2023-10-13T13:22:05;-16791.28;;;27.22;31.32
8705;BME280;4389;41.932;25.904;2023-10-13T13:24:38;-16791.41;;;27.23;31.34
8705;BME280;4389;41.932;25.904;2023-10-13T13:27:09;-16782.97;;;26.91;31.52
8705;BME280;4389;41.932;25.904;2023-10-13T13:29:40;-16775.88;;;26.64;32.39
8705;BME280;4389;41.932;25.904;2023-10-13T13:32:08;-16774.69;;;26.59;32.65
8705;BME280;4389;41.932;25.904;2023-10-13T13:34:43;-16772.84;;;26.52;32.78
8705;BME280;4389;41.932;25.904;2023-10-13T13:37:10;-16773.50;;;26.55;33.20
8705;BME280;4389;41.932;25.904;2023-10-13T13:39:38;-16775.63;;;26.63;33.06